NLA308 PANC-PASD
Flight info
| Callsign | NLA308 |
|---|---|
| Flight time | 2h 20m |
| Altitude | 20000 |
| Route | ENA |
| Aircraft | SF34/M-SDFGR/S |
Departure
| Time | 2026-05-09 12:57 |
|---|---|
| Airport | Ted Stevens Anchorage International Airport (PANC) |
Arrival
| Time | 2026-05-09 15:17 |
|---|---|
| Airport | Sand Point Airport (PASD) |
| Time | Latitude | Longitude | Altitude | Speed | Heading |
|---|---|---|---|---|---|
| 2026-05-09 12:43 | 61.17231 | -149.98033 | 159 ft | 0 kts | 90° |
| 2026-05-09 12:54 | 61.17231 | -149.98032 | 159 ft | 1 kts | 91° |
| 2026-05-09 12:54 | 61.17218 | -149.98025 | 159 ft | 6 kts | 188° |
| 2026-05-09 12:55 | 61.17142 | -149.98066 | 159 ft | 11 kts | 232° |
| 2026-05-09 12:55 | 61.17124 | -149.98248 | 159 ft | 21 kts | 270° |
| 2026-05-09 12:55 | 61.17124 | -149.98594 | 159 ft | 26 kts | 269° |
| 2026-05-09 12:55 | 61.17122 | -149.98987 | 159 ft | 28 kts | 269° |
| 2026-05-09 12:56 | 61.17122 | -149.99391 | 159 ft | 28 kts | 269° |
| 2026-05-09 12:56 | 61.17123 | -149.99781 | 159 ft | 21 kts | 285° |
| 2026-05-09 12:56 | 61.17208 | -149.99906 | 159 ft | 22 kts | 343° |
| 2026-05-09 12:56 | 61.17778 | -150.00231 | 195 ft | 131 kts | 344° |
| 2026-05-09 12:57 | 61.18719 | -150.00807 | 699 ft | 153 kts | 340° |
| 2026-05-09 12:57 | 61.19790 | -150.01596 | 1223 ft | 167 kts | 340° |
| 2026-05-09 12:57 | 61.20947 | -150.02342 | 1654 ft | 182 kts | 345° |
| 2026-05-09 12:57 | 61.22191 | -150.03055 | 2071 ft | 188 kts | 339° |
| 2026-05-09 12:58 | 61.23184 | -150.04761 | 2487 ft | 193 kts | 306° |
| 2026-05-09 12:58 | 61.23569 | -150.07407 | 2914 ft | 197 kts | 273° |
| 2026-05-09 12:58 | 61.23405 | -150.10264 | 3371 ft | 200 kts | 262° |
| 2026-05-09 12:58 | 61.23166 | -150.13125 | 3799 ft | 203 kts | 262° |
| 2026-05-09 12:59 | 61.22908 | -150.16019 | 4227 ft | 205 kts | 262° |
| 2026-05-09 12:59 | 61.22612 | -150.18931 | 4650 ft | 209 kts | 256° |
| 2026-05-09 12:59 | 61.21808 | -150.21450 | 5069 ft | 215 kts | 224° |
| 2026-05-09 12:59 | 61.20517 | -150.23046 | 5517 ft | 219 kts | 207° |
| 2026-05-09 13:00 | 61.19093 | -150.24245 | 5948 ft | 223 kts | 202° |
| 2026-05-09 13:00 | 61.17623 | -150.25354 | 6377 ft | 226 kts | 201° |
| 2026-05-09 13:00 | 61.16148 | -150.26452 | 6802 ft | 229 kts | 201° |
| 2026-05-09 13:00 | 61.14620 | -150.27602 | 7235 ft | 232 kts | 202° |
| 2026-05-09 13:01 | 61.13119 | -150.28753 | 7657 ft | 234 kts | 202° |
| 2026-05-09 13:01 | 61.11591 | -150.29952 | 8086 ft | 235 kts | 202° |
| 2026-05-09 13:01 | 61.10061 | -150.31177 | 8511 ft | 236 kts | 203° |
| 2026-05-09 13:01 | 61.08534 | -150.32433 | 8936 ft | 236 kts | 203° |
| 2026-05-09 13:02 | 61.07008 | -150.33719 | 9363 ft | 236 kts | 204° |
| 2026-05-09 13:02 | 61.05491 | -150.35029 | 9790 ft | 236 kts | 205° |
| 2026-05-09 13:02 | 61.03986 | -150.36360 | 10216 ft | 235 kts | 205° |
| 2026-05-09 13:02 | 61.02499 | -150.37730 | 10642 ft | 233 kts | 207° |
| 2026-05-09 13:03 | 61.01061 | -150.39264 | 11070 ft | 231 kts | 212° |
| 2026-05-09 13:03 | 60.99703 | -150.40998 | 11501 ft | 229 kts | 217° |
| 2026-05-09 13:03 | 60.98434 | -150.42885 | 11921 ft | 227 kts | 220° |
| 2026-05-09 13:03 | 60.97197 | -150.44950 | 12360 ft | 225 kts | 223° |
| 2026-05-09 13:04 | 60.96039 | -150.47045 | 12777 ft | 224 kts | 225° |
| 2026-05-09 13:04 | 60.94893 | -150.49214 | 13203 ft | 223 kts | 227° |
| 2026-05-09 13:04 | 60.93774 | -150.51420 | 13627 ft | 223 kts | 228° |
| 2026-05-09 13:04 | 60.92674 | -150.53671 | 14051 ft | 223 kts | 230° |
| 2026-05-09 13:05 | 60.91586 | -150.55943 | 14475 ft | 222 kts | 230° |
| 2026-05-09 13:05 | 60.90506 | -150.58217 | 14901 ft | 222 kts | 231° |
| 2026-05-09 13:05 | 60.89428 | -150.60502 | 15326 ft | 222 kts | 231° |
| 2026-05-09 13:05 | 60.88353 | -150.62791 | 15752 ft | 222 kts | 232° |
| 2026-05-09 13:06 | 60.87279 | -150.65081 | 16177 ft | 222 kts | 232° |
| 2026-05-09 13:06 | 60.86206 | -150.67368 | 16602 ft | 222 kts | 232° |
| 2026-05-09 13:06 | 60.85131 | -150.69658 | 17028 ft | 222 kts | 233° |
| 2026-05-09 13:06 | 60.84059 | -150.71945 | 17452 ft | 222 kts | 233° |
| 2026-05-09 13:07 | 60.82986 | -150.74230 | 17877 ft | 222 kts | 233° |
| 2026-05-09 13:07 | 60.81927 | -150.76480 | 18297 ft | 222 kts | 234° |
| 2026-05-09 13:07 | 60.80841 | -150.78782 | 18727 ft | 222 kts | 234° |
| 2026-05-09 13:07 | 60.79783 | -150.81027 | 19147 ft | 221 kts | 234° |
| 2026-05-09 13:08 | 60.78710 | -150.83299 | 19506 ft | 225 kts | 234° |
| 2026-05-09 13:08 | 60.77606 | -150.85653 | 19643 ft | 234 kts | 234° |
| 2026-05-09 13:08 | 60.76455 | -150.88108 | 19694 ft | 243 kts | 234° |
| 2026-05-09 13:08 | 60.75268 | -150.90629 | 19694 ft | 248 kts | 234° |
| 2026-05-09 13:09 | 60.74057 | -150.93186 | 19691 ft | 251 kts | 234° |
| 2026-05-09 13:09 | 60.72837 | -150.95748 | 19690 ft | 252 kts | 234° |
| 2026-05-09 13:09 | 60.71610 | -150.98322 | 19691 ft | 253 kts | 234° |
| 2026-05-09 13:09 | 60.70381 | -151.00894 | 19691 ft | 253 kts | 234° |
| 2026-05-09 13:10 | 60.69152 | -151.03466 | 19692 ft | 253 kts | 234° |
| 2026-05-09 13:10 | 60.67926 | -151.06032 | 19692 ft | 253 kts | 234° |
| 2026-05-09 13:10 | 60.66700 | -151.08597 | 19692 ft | 252 kts | 234° |
| 2026-05-09 13:10 | 60.65476 | -151.11157 | 19692 ft | 252 kts | 234° |
| 2026-05-09 13:11 | 60.64268 | -151.13681 | 19692 ft | 252 kts | 234° |
| 2026-05-09 13:11 | 60.63044 | -151.16245 | 19691 ft | 252 kts | 234° |
| 2026-05-09 13:11 | 60.61835 | -151.18824 | 19691 ft | 251 kts | 235° |
| 2026-05-09 13:11 | 60.60637 | -151.21406 | 19690 ft | 251 kts | 236° |
| 2026-05-09 13:12 | 60.59443 | -151.23991 | 19689 ft | 249 kts | 236° |
| 2026-05-09 13:12 | 60.58259 | -151.26559 | 19689 ft | 249 kts | 236° |
| 2026-05-09 13:12 | 60.57073 | -151.29136 | 19689 ft | 249 kts | 236° |
| 2026-05-09 13:12 | 60.55889 | -151.31711 | 19689 ft | 249 kts | 236° |
| 2026-05-09 13:13 | 60.54704 | -151.34285 | 19689 ft | 249 kts | 236° |
| 2026-05-09 13:13 | 60.53521 | -151.36855 | 19690 ft | 249 kts | 236° |
| 2026-05-09 13:13 | 60.52355 | -151.39384 | 19690 ft | 248 kts | 236° |
| 2026-05-09 13:13 | 60.51175 | -151.41941 | 19691 ft | 248 kts | 236° |
| 2026-05-09 13:14 | 60.49996 | -151.44494 | 19691 ft | 247 kts | 236° |
| 2026-05-09 13:14 | 60.48819 | -151.47039 | 19691 ft | 247 kts | 236° |
| 2026-05-09 13:16 | 60.40626 | -151.64690 | 19686 ft | 244 kts | 237° |
| 2026-05-09 13:16 | 60.39459 | -151.67192 | 19686 ft | 244 kts | 237° |
| 2026-05-09 13:16 | 60.38296 | -151.69683 | 19686 ft | 244 kts | 237° |
| 2026-05-09 13:16 | 60.37129 | -151.72170 | 19686 ft | 243 kts | 237° |
| 2026-05-09 13:17 | 60.35963 | -151.74651 | 19687 ft | 243 kts | 237° |
| 2026-05-09 13:17 | 60.34794 | -151.77123 | 19687 ft | 243 kts | 237° |
| 2026-05-09 13:17 | 60.33617 | -151.79583 | 19686 ft | 243 kts | 237° |
| 2026-05-09 13:17 | 60.32453 | -151.82000 | 19686 ft | 243 kts | 237° |
| 2026-05-09 13:18 | 60.31294 | -151.84469 | 19686 ft | 240 kts | 239° |
| 2026-05-09 13:18 | 60.30269 | -151.87084 | 19687 ft | 235 kts | 244° |
| 2026-05-09 13:18 | 60.29429 | -151.89870 | 19686 ft | 230 kts | 251° |
| 2026-05-09 13:18 | 60.28805 | -151.92805 | 19686 ft | 225 kts | 258° |
| 2026-05-09 13:19 | 60.28360 | -151.95817 | 19687 ft | 225 kts | 259° |
| 2026-05-09 13:19 | 60.27622 | -151.98653 | 19684 ft | 238 kts | 242° |
| 2026-05-09 13:19 | 60.26336 | -152.00909 | 19691 ft | 250 kts | 228° |
| 2026-05-09 13:19 | 60.24906 | -152.02864 | 19689 ft | 252 kts | 226° |
| 2026-05-09 13:20 | 60.23441 | -152.04866 | 19686 ft | 251 kts | 227° |
| 2026-05-09 13:20 | 60.22048 | -152.06901 | 19685 ft | 249 kts | 229° |
| 2026-05-09 13:20 | 60.20693 | -152.09041 | 19684 ft | 247 kts | 231° |
| 2026-05-09 13:20 | 60.19382 | -152.11254 | 19684 ft | 245 kts | 233° |
| 2026-05-09 13:21 | 60.18110 | -152.13525 | 19683 ft | 244 kts | 234° |
| 2026-05-09 13:21 | 60.16866 | -152.15844 | 19683 ft | 243 kts | 235° |
| 2026-05-09 13:21 | 60.15645 | -152.18191 | 19682 ft | 243 kts | 236° |
| 2026-05-09 13:21 | 60.14439 | -152.20564 | 19681 ft | 242 kts | 236° |
| 2026-05-09 13:22 | 60.13250 | -152.22945 | 19680 ft | 242 kts | 236° |
| 2026-05-09 13:22 | 60.12065 | -152.25344 | 19680 ft | 241 kts | 237° |
| 2026-05-09 13:22 | 60.10889 | -152.27744 | 19679 ft | 241 kts | 237° |
| 2026-05-09 13:23 | 60.06209 | -152.37393 | 19678 ft | 241 kts | 237° |
| 2026-05-09 13:23 | 60.05042 | -152.39807 | 19678 ft | 242 kts | 237° |
| 2026-05-09 13:24 | 60.03873 | -152.42224 | 19677 ft | 242 kts | 237° |
| 2026-05-09 13:24 | 60.02719 | -152.44609 | 19677 ft | 242 kts | 237° |
| 2026-05-09 13:24 | 60.01551 | -152.47022 | 19676 ft | 242 kts | 237° |
| 2026-05-09 13:24 | 60.00381 | -152.49438 | 19676 ft | 242 kts | 237° |
| 2026-05-09 13:25 | 59.99213 | -152.51845 | 19686 ft | 240 kts | 237° |
| 2026-05-09 13:25 | 59.98052 | -152.54229 | 19699 ft | 238 kts | 238° |
| 2026-05-09 13:25 | 59.95750 | -152.58963 | 19704 ft | 237 kts | 238° |
| 2026-05-09 13:26 | 59.94602 | -152.61326 | 19705 ft | 237 kts | 238° |
| 2026-05-09 13:26 | 59.93452 | -152.63689 | 19706 ft | 237 kts | 238° |
| 2026-05-09 13:26 | 59.92306 | -152.66042 | 19707 ft | 237 kts | 238° |
| 2026-05-09 13:26 | 59.91160 | -152.68392 | 19707 ft | 236 kts | 238° |
| 2026-05-09 13:27 | 59.90013 | -152.70741 | 19708 ft | 236 kts | 238° |
| 2026-05-09 13:27 | 59.88867 | -152.73086 | 19709 ft | 236 kts | 238° |
| 2026-05-09 13:27 | 59.87721 | -152.75427 | 19710 ft | 236 kts | 238° |
| 2026-05-09 13:27 | 59.86577 | -152.77763 | 19711 ft | 235 kts | 238° |
| 2026-05-09 13:28 | 59.85436 | -152.80089 | 19712 ft | 235 kts | 238° |
| 2026-05-09 13:28 | 59.84307 | -152.82389 | 19713 ft | 235 kts | 238° |
| 2026-05-09 13:28 | 59.83151 | -152.84741 | 19714 ft | 235 kts | 238° |
| 2026-05-09 13:28 | 59.82010 | -152.87060 | 19715 ft | 234 kts | 238° |
| 2026-05-09 13:29 | 59.80888 | -152.89339 | 19716 ft | 234 kts | 238° |
| 2026-05-09 13:29 | 59.79750 | -152.91647 | 19717 ft | 234 kts | 238° |
| 2026-05-09 13:29 | 59.78613 | -152.93950 | 19718 ft | 233 kts | 238° |
| 2026-05-09 13:29 | 59.77480 | -152.96246 | 19720 ft | 233 kts | 238° |
| 2026-05-09 13:30 | 59.76344 | -152.98546 | 19722 ft | 233 kts | 238° |
| 2026-05-09 13:30 | 59.75212 | -153.00831 | 19733 ft | 232 kts | 238° |
| 2026-05-09 13:30 | 59.74078 | -153.03118 | 19739 ft | 232 kts | 238° |
| 2026-05-09 13:30 | 59.72947 | -153.05398 | 19742 ft | 232 kts | 238° |
| 2026-05-09 13:31 | 59.71815 | -153.07678 | 19744 ft | 232 kts | 238° |
| 2026-05-09 13:31 | 59.70684 | -153.09951 | 19746 ft | 232 kts | 238° |
| 2026-05-09 13:31 | 59.69550 | -153.12231 | 19748 ft | 232 kts | 238° |
| 2026-05-09 13:31 | 59.68418 | -153.14502 | 19750 ft | 231 kts | 238° |
| 2026-05-09 13:32 | 59.67290 | -153.16767 | 19752 ft | 231 kts | 238° |
| 2026-05-09 13:32 | 59.65052 | -153.21248 | 19756 ft | 231 kts | 238° |
| 2026-05-09 13:32 | 59.63932 | -153.23479 | 19757 ft | 232 kts | 239° |
| 2026-05-09 13:33 | 59.62800 | -153.25743 | 19749 ft | 231 kts | 239° |
| 2026-05-09 13:33 | 59.61678 | -153.27982 | 19747 ft | 231 kts | 239° |
| 2026-05-09 13:33 | 59.60536 | -153.30260 | 19748 ft | 231 kts | 239° |
| 2026-05-09 13:33 | 59.59406 | -153.32511 | 19750 ft | 231 kts | 239° |
| 2026-05-09 13:34 | 59.58272 | -153.34767 | 19753 ft | 231 kts | 239° |
| 2026-05-09 13:34 | 59.57140 | -153.37017 | 19755 ft | 231 kts | 238° |
| 2026-05-09 13:34 | 59.56009 | -153.39263 | 19757 ft | 231 kts | 238° |
| 2026-05-09 13:34 | 59.54875 | -153.41512 | 19759 ft | 231 kts | 238° |
| 2026-05-09 13:35 | 59.53743 | -153.43756 | 19762 ft | 231 kts | 238° |
| 2026-05-09 13:35 | 59.52609 | -153.46002 | 19764 ft | 231 kts | 239° |
| 2026-05-09 13:35 | 59.51487 | -153.48217 | 19766 ft | 231 kts | 238° |
| 2026-05-09 13:35 | 59.50349 | -153.50463 | 19768 ft | 231 kts | 238° |
| 2026-05-09 13:36 | 59.49217 | -153.52698 | 19770 ft | 231 kts | 238° |
| 2026-05-09 13:36 | 59.48080 | -153.54939 | 19773 ft | 231 kts | 238° |
| 2026-05-09 13:36 | 59.46942 | -153.57182 | 19775 ft | 231 kts | 238° |
| 2026-05-09 13:36 | 59.45807 | -153.59414 | 19781 ft | 231 kts | 238° |
| 2026-05-09 13:37 | 59.44671 | -153.61648 | 19790 ft | 231 kts | 238° |
| 2026-05-09 13:37 | 59.43533 | -153.63882 | 19795 ft | 231 kts | 238° |
| 2026-05-09 13:37 | 59.42394 | -153.66111 | 19797 ft | 231 kts | 238° |
| 2026-05-09 13:37 | 59.41257 | -153.68337 | 19798 ft | 231 kts | 238° |
| 2026-05-09 13:38 | 59.40118 | -153.70566 | 19800 ft | 231 kts | 238° |
| 2026-05-09 13:38 | 59.38982 | -153.72789 | 19801 ft | 231 kts | 238° |
| 2026-05-09 13:38 | 59.37859 | -153.74984 | 19803 ft | 231 kts | 238° |
| 2026-05-09 13:38 | 59.37092 | -153.76483 | 19804 ft | 231 kts | 238° |
| 2026-05-09 13:39 | 59.35957 | -153.78702 | 19805 ft | 231 kts | 238° |
| 2026-05-09 13:39 | 59.34454 | -153.81639 | 19807 ft | 230 kts | 238° |
| 2026-05-09 13:39 | 59.33689 | -153.83129 | 19807 ft | 230 kts | 238° |
| 2026-05-09 13:39 | 59.32185 | -153.86058 | 19794 ft | 230 kts | 238° |
| 2026-05-09 13:40 | 59.31049 | -153.88266 | 19784 ft | 230 kts | 238° |
| 2026-05-09 13:40 | 59.30279 | -153.89759 | 19782 ft | 230 kts | 238° |
| 2026-05-09 13:40 | 59.29183 | -153.91879 | 19781 ft | 230 kts | 238° |
| 2026-05-09 13:40 | 59.28003 | -153.94157 | 19782 ft | 230 kts | 238° |
| 2026-05-09 13:41 | 59.26882 | -153.96323 | 19782 ft | 229 kts | 238° |
| 2026-05-09 13:41 | 59.25746 | -153.98516 | 19783 ft | 229 kts | 238° |
| 2026-05-09 13:41 | 59.24610 | -154.00708 | 19784 ft | 229 kts | 238° |
| 2026-05-09 13:41 | 59.23475 | -154.02895 | 19784 ft | 228 kts | 238° |
| 2026-05-09 13:42 | 59.22346 | -154.05069 | 19784 ft | 228 kts | 238° |
| 2026-05-09 13:42 | 59.21218 | -154.07240 | 19784 ft | 228 kts | 238° |
| 2026-05-09 13:42 | 59.20088 | -154.09412 | 19785 ft | 227 kts | 238° |
| 2026-05-09 13:42 | 59.18959 | -154.11581 | 19785 ft | 227 kts | 238° |
| 2026-05-09 13:43 | 59.17834 | -154.13741 | 19785 ft | 227 kts | 238° |
| 2026-05-09 13:43 | 59.16708 | -154.15902 | 19785 ft | 227 kts | 238° |
| 2026-05-09 13:43 | 59.15583 | -154.18057 | 19785 ft | 227 kts | 238° |
| 2026-05-09 13:43 | 59.14470 | -154.20187 | 19793 ft | 227 kts | 238° |
| 2026-05-09 13:44 | 59.13330 | -154.22368 | 19802 ft | 227 kts | 238° |
| 2026-05-09 13:44 | 59.12218 | -154.24493 | 19810 ft | 227 kts | 238° |
| 2026-05-09 13:44 | 59.11091 | -154.26644 | 19813 ft | 226 kts | 238° |
| 2026-05-09 13:44 | 59.09968 | -154.28784 | 19814 ft | 226 kts | 238° |
| 2026-05-09 13:45 | 59.08846 | -154.30920 | 19814 ft | 226 kts | 238° |
| 2026-05-09 13:45 | 59.07725 | -154.33056 | 19815 ft | 226 kts | 238° |
| 2026-05-09 13:45 | 59.06602 | -154.35191 | 19815 ft | 226 kts | 238° |
| 2026-05-09 13:45 | 59.05483 | -154.37320 | 19815 ft | 225 kts | 238° |
| 2026-05-09 13:46 | 59.04359 | -154.39454 | 19816 ft | 226 kts | 238° |
| 2026-05-09 13:46 | 59.03235 | -154.41583 | 19816 ft | 226 kts | 238° |
| 2026-05-09 13:46 | 59.02109 | -154.43714 | 19816 ft | 226 kts | 238° |
| 2026-05-09 13:46 | 59.00986 | -154.45838 | 19817 ft | 225 kts | 238° |
| 2026-05-09 13:47 | 58.99862 | -154.47962 | 19817 ft | 225 kts | 238° |
| 2026-05-09 13:47 | 58.98741 | -154.50075 | 19817 ft | 224 kts | 238° |
| 2026-05-09 13:47 | 58.97624 | -154.52182 | 19818 ft | 224 kts | 238° |
| 2026-05-09 13:47 | 58.96506 | -154.54292 | 19818 ft | 224 kts | 238° |
| 2026-05-09 13:48 | 58.95387 | -154.56401 | 19818 ft | 224 kts | 238° |
| 2026-05-09 13:48 | 58.94267 | -154.58508 | 19819 ft | 224 kts | 238° |
| 2026-05-09 13:48 | 58.93163 | -154.60582 | 19819 ft | 224 kts | 238° |
| 2026-05-09 13:48 | 58.92030 | -154.62709 | 19819 ft | 224 kts | 238° |
| 2026-05-09 13:49 | 58.90925 | -154.64779 | 19820 ft | 224 kts | 238° |
| 2026-05-09 13:49 | 58.89804 | -154.66880 | 19820 ft | 224 kts | 238° |
| 2026-05-09 13:49 | 58.88680 | -154.68983 | 19821 ft | 224 kts | 238° |
| 2026-05-09 13:49 | 58.87564 | -154.71071 | 19821 ft | 223 kts | 238° |
| 2026-05-09 13:50 | 58.86443 | -154.73165 | 19821 ft | 223 kts | 238° |
| 2026-05-09 13:50 | 58.85330 | -154.75242 | 19822 ft | 223 kts | 238° |
| 2026-05-09 13:50 | 58.84210 | -154.77329 | 19822 ft | 223 kts | 238° |
| 2026-05-09 13:50 | 58.83096 | -154.79406 | 19823 ft | 223 kts | 238° |
| 2026-05-09 13:51 | 58.81977 | -154.81487 | 19823 ft | 223 kts | 238° |
| 2026-05-09 13:51 | 58.80864 | -154.83559 | 19823 ft | 223 kts | 238° |
| 2026-05-09 13:51 | 58.79761 | -154.85608 | 19824 ft | 223 kts | 238° |
| 2026-05-09 13:51 | 58.78644 | -154.87682 | 19824 ft | 223 kts | 238° |
| 2026-05-09 13:52 | 58.77529 | -154.89751 | 19825 ft | 223 kts | 238° |
| 2026-05-09 13:52 | 58.76411 | -154.91822 | 19826 ft | 222 kts | 238° |
| 2026-05-09 13:52 | 58.75297 | -154.93883 | 19848 ft | 221 kts | 238° |
| 2026-05-09 13:52 | 58.74188 | -154.95930 | 19866 ft | 221 kts | 238° |
| 2026-05-09 13:53 | 58.73074 | -154.97987 | 19871 ft | 221 kts | 238° |
| 2026-05-09 13:53 | 58.71965 | -155.00035 | 19872 ft | 221 kts | 238° |
| 2026-05-09 13:53 | 58.70856 | -155.02081 | 19872 ft | 221 kts | 238° |
| 2026-05-09 13:53 | 58.69745 | -155.04131 | 19872 ft | 221 kts | 238° |
| 2026-05-09 13:54 | 58.68634 | -155.06177 | 19872 ft | 222 kts | 238° |
| 2026-05-09 13:54 | 58.67518 | -155.08230 | 19872 ft | 222 kts | 237° |
| 2026-05-09 13:54 | 58.66404 | -155.10278 | 19871 ft | 222 kts | 237° |
| 2026-05-09 13:54 | 58.65287 | -155.12329 | 19871 ft | 222 kts | 237° |
| 2026-05-09 13:55 | 58.64172 | -155.14373 | 19871 ft | 221 kts | 237° |
| 2026-05-09 13:55 | 58.63059 | -155.16412 | 19871 ft | 221 kts | 237° |
| 2026-05-09 13:55 | 58.61945 | -155.18451 | 19870 ft | 221 kts | 237° |
| 2026-05-09 13:55 | 58.60832 | -155.20486 | 19870 ft | 221 kts | 237° |
| 2026-05-09 13:56 | 58.59717 | -155.22523 | 19870 ft | 221 kts | 237° |
| 2026-05-09 13:56 | 58.58601 | -155.24560 | 19869 ft | 221 kts | 237° |
| 2026-05-09 13:56 | 58.57500 | -155.26567 | 19869 ft | 221 kts | 237° |
| 2026-05-09 13:56 | 58.56372 | -155.28623 | 19869 ft | 221 kts | 237° |
| 2026-05-09 13:57 | 58.55274 | -155.30621 | 19869 ft | 220 kts | 237° |
| 2026-05-09 13:57 | 58.54163 | -155.32639 | 19868 ft | 220 kts | 237° |
| 2026-05-09 13:57 | 58.53039 | -155.34681 | 19868 ft | 220 kts | 237° |
| 2026-05-09 13:57 | 58.51947 | -155.36664 | 19867 ft | 220 kts | 237° |
| 2026-05-09 13:58 | 58.50839 | -155.38673 | 19867 ft | 220 kts | 237° |
| 2026-05-09 13:58 | 58.49726 | -155.40692 | 19867 ft | 220 kts | 237° |
| 2026-05-09 13:58 | 58.48616 | -155.42702 | 19866 ft | 219 kts | 237° |
| 2026-05-09 13:58 | 58.47508 | -155.44707 | 19866 ft | 219 kts | 237° |
| 2026-05-09 13:59 | 58.46402 | -155.46707 | 19865 ft | 219 kts | 237° |
| 2026-05-09 13:59 | 58.45292 | -155.48712 | 19865 ft | 219 kts | 237° |
| 2026-05-09 13:59 | 58.44180 | -155.50718 | 19864 ft | 220 kts | 237° |
| 2026-05-09 13:59 | 58.43071 | -155.52715 | 19864 ft | 220 kts | 237° |
| 2026-05-09 14:00 | 58.41973 | -155.54693 | 19864 ft | 219 kts | 236° |
| 2026-05-09 14:00 | 58.41598 | -155.55369 | 19863 ft | 219 kts | 236° |
| 2026-05-09 14:00 | 58.39753 | -155.58682 | 19863 ft | 219 kts | 237° |
| 2026-05-09 14:00 | 58.38645 | -155.60671 | 19862 ft | 218 kts | 237° |
| 2026-05-09 14:01 | 58.37538 | -155.62655 | 19861 ft | 218 kts | 237° |
| 2026-05-09 14:01 | 58.36432 | -155.64639 | 19861 ft | 218 kts | 237° |
| 2026-05-09 14:01 | 58.35327 | -155.66617 | 19861 ft | 218 kts | 237° |
| 2026-05-09 14:01 | 58.34222 | -155.68595 | 19860 ft | 218 kts | 236° |
| 2026-05-09 14:02 | 58.33117 | -155.70570 | 19860 ft | 218 kts | 236° |
| 2026-05-09 14:02 | 58.32013 | -155.72543 | 19856 ft | 218 kts | 236° |
| 2026-05-09 14:02 | 58.30905 | -155.74520 | 19854 ft | 218 kts | 236° |
| 2026-05-09 14:02 | 58.29799 | -155.76492 | 19854 ft | 218 kts | 236° |
| 2026-05-09 14:03 | 58.28692 | -155.78465 | 19854 ft | 218 kts | 236° |
| 2026-05-09 14:03 | 58.27585 | -155.80436 | 19853 ft | 218 kts | 236° |
| 2026-05-09 14:03 | 58.26473 | -155.82410 | 19854 ft | 218 kts | 236° |
| 2026-05-09 14:03 | 58.25366 | -155.84377 | 19854 ft | 218 kts | 236° |
| 2026-05-09 14:04 | 58.24257 | -155.86344 | 19853 ft | 218 kts | 236° |
| 2026-05-09 14:04 | 58.23166 | -155.88278 | 19854 ft | 217 kts | 236° |
| 2026-05-09 14:04 | 58.22060 | -155.90237 | 19853 ft | 217 kts | 236° |
| 2026-05-09 14:04 | 58.20960 | -155.92185 | 19860 ft | 217 kts | 236° |
| 2026-05-09 14:05 | 58.19855 | -155.94138 | 19862 ft | 217 kts | 236° |
| 2026-05-09 14:05 | 58.18755 | -155.96082 | 19863 ft | 217 kts | 236° |
| 2026-05-09 14:05 | 58.17652 | -155.98029 | 19863 ft | 217 kts | 236° |
| 2026-05-09 14:05 | 58.16548 | -155.99977 | 19862 ft | 217 kts | 236° |
| 2026-05-09 14:06 | 58.15443 | -156.01923 | 19862 ft | 217 kts | 236° |
| 2026-05-09 14:06 | 58.14339 | -156.03868 | 19862 ft | 217 kts | 236° |
| 2026-05-09 14:06 | 58.13234 | -156.05810 | 19862 ft | 217 kts | 236° |
| 2026-05-09 14:06 | 58.12128 | -156.07755 | 19861 ft | 217 kts | 236° |
| 2026-05-09 14:07 | 58.11023 | -156.09695 | 19861 ft | 217 kts | 236° |
| 2026-05-09 14:07 | 58.09917 | -156.11636 | 19861 ft | 217 kts | 236° |
| 2026-05-09 14:07 | 58.08810 | -156.13575 | 19861 ft | 217 kts | 236° |
| 2026-05-09 14:07 | 58.07702 | -156.15515 | 19860 ft | 217 kts | 236° |
| 2026-05-09 14:08 | 58.06594 | -156.17455 | 19860 ft | 217 kts | 236° |
| 2026-05-09 14:08 | 58.05503 | -156.19361 | 19860 ft | 217 kts | 236° |
| 2026-05-09 14:08 | 58.04396 | -156.21295 | 19860 ft | 217 kts | 236° |
| 2026-05-09 14:08 | 58.03287 | -156.23231 | 19860 ft | 217 kts | 236° |
| 2026-05-09 14:09 | 58.02179 | -156.25161 | 19859 ft | 217 kts | 236° |
| 2026-05-09 14:09 | 58.01071 | -156.27093 | 19859 ft | 217 kts | 236° |
| 2026-05-09 14:09 | 57.99959 | -156.29029 | 19859 ft | 218 kts | 236° |
| 2026-05-09 14:09 | 57.98843 | -156.30970 | 19859 ft | 218 kts | 236° |
| 2026-05-09 14:10 | 57.96616 | -156.34838 | 19858 ft | 217 kts | 235° |
| 2026-05-09 14:10 | 57.95504 | -156.36766 | 19858 ft | 217 kts | 235° |
| 2026-05-09 14:10 | 57.94389 | -156.38698 | 19858 ft | 218 kts | 235° |
| 2026-05-09 14:11 | 57.93276 | -156.40625 | 19858 ft | 218 kts | 235° |
| 2026-05-09 14:11 | 57.92162 | -156.42552 | 19858 ft | 218 kts | 235° |
| 2026-05-09 14:11 | 57.92032 | -156.42776 | 19858 ft | 218 kts | 235° |
| 2026-05-09 14:11 | 57.91472 | -156.43743 | 19857 ft | 218 kts | 235° |
| 2026-05-09 14:12 | 57.90356 | -156.45671 | 19857 ft | 218 kts | 235° |
| 2026-05-09 14:12 | 57.89238 | -156.47600 | 19857 ft | 218 kts | 235° |
| 2026-05-09 14:12 | 57.88118 | -156.49529 | 19857 ft | 218 kts | 235° |
| 2026-05-09 14:12 | 57.86998 | -156.51459 | 19857 ft | 218 kts | 235° |
| 2026-05-09 14:13 | 57.85882 | -156.53380 | 19857 ft | 218 kts | 235° |
| 2026-05-09 14:14 | 57.78035 | -156.66837 | 19855 ft | 218 kts | 234° |
| 2026-05-09 14:15 | 57.76914 | -156.68755 | 19855 ft | 218 kts | 234° |
| 2026-05-09 14:15 | 57.75790 | -156.70674 | 19855 ft | 218 kts | 234° |
| 2026-05-09 14:15 | 57.74667 | -156.72592 | 19855 ft | 218 kts | 234° |
| 2026-05-09 14:15 | 57.73544 | -156.74505 | 19855 ft | 218 kts | 234° |
| 2026-05-09 14:16 | 57.72421 | -156.76418 | 19855 ft | 218 kts | 234° |
| 2026-05-09 14:16 | 57.71311 | -156.78305 | 19855 ft | 218 kts | 234° |
| 2026-05-09 14:16 | 57.70187 | -156.80215 | 19855 ft | 218 kts | 234° |
| 2026-05-09 14:16 | 57.69062 | -156.82126 | 19855 ft | 219 kts | 234° |
| 2026-05-09 14:17 | 57.67932 | -156.84044 | 19856 ft | 220 kts | 234° |
| 2026-05-09 14:17 | 57.66800 | -156.85964 | 19856 ft | 219 kts | 234° |
| 2026-05-09 14:17 | 57.65674 | -156.87869 | 19855 ft | 218 kts | 234° |
| 2026-05-09 14:17 | 57.64558 | -156.89753 | 19855 ft | 215 kts | 234° |
| 2026-05-09 14:18 | 57.63456 | -156.91612 | 19855 ft | 213 kts | 234° |
| 2026-05-09 14:18 | 57.62357 | -156.93466 | 19856 ft | 212 kts | 234° |
| 2026-05-09 14:18 | 57.61267 | -156.95307 | 19856 ft | 211 kts | 234° |
| 2026-05-09 14:18 | 57.60177 | -156.97148 | 19856 ft | 211 kts | 234° |
| 2026-05-09 14:19 | 57.59090 | -156.98982 | 19857 ft | 211 kts | 234° |
| 2026-05-09 14:19 | 57.58002 | -157.00817 | 19856 ft | 211 kts | 234° |
| 2026-05-09 14:19 | 57.56925 | -157.02631 | 19853 ft | 211 kts | 234° |
| 2026-05-09 14:19 | 57.55835 | -157.04463 | 19853 ft | 211 kts | 234° |
| 2026-05-09 14:20 | 57.54744 | -157.06299 | 19853 ft | 211 kts | 233° |
| 2026-05-09 14:20 | 57.53648 | -157.08139 | 19853 ft | 212 kts | 233° |
| 2026-05-09 14:20 | 57.52559 | -157.09963 | 19853 ft | 210 kts | 233° |
| 2026-05-09 14:21 | 57.50408 | -157.13560 | 19853 ft | 207 kts | 233° |
| 2026-05-09 14:21 | 57.49337 | -157.15351 | 19854 ft | 206 kts | 233° |
| 2026-05-09 14:21 | 57.48286 | -157.17109 | 19854 ft | 206 kts | 233° |
| 2026-05-09 14:21 | 57.47208 | -157.18910 | 19854 ft | 206 kts | 233° |
| 2026-05-09 14:22 | 57.46158 | -157.20664 | 19854 ft | 206 kts | 233° |
| 2026-05-09 14:22 | 57.45078 | -157.22466 | 19854 ft | 206 kts | 233° |
| 2026-05-09 14:22 | 57.44026 | -157.24220 | 19854 ft | 206 kts | 233° |
| 2026-05-09 14:22 | 57.42960 | -157.25994 | 19854 ft | 206 kts | 233° |
| 2026-05-09 14:23 | 57.41896 | -157.27764 | 19854 ft | 206 kts | 233° |
| 2026-05-09 14:23 | 57.40829 | -157.29540 | 19854 ft | 206 kts | 233° |
| 2026-05-09 14:23 | 57.39760 | -157.31317 | 19854 ft | 206 kts | 233° |
| 2026-05-09 14:23 | 57.38689 | -157.33094 | 19854 ft | 207 kts | 233° |
| 2026-05-09 14:24 | 57.37618 | -157.34870 | 19854 ft | 207 kts | 233° |
| 2026-05-09 14:24 | 57.36544 | -157.36647 | 19853 ft | 207 kts | 233° |
| 2026-05-09 14:24 | 57.35473 | -157.38420 | 19853 ft | 207 kts | 233° |
| 2026-05-09 14:24 | 57.34398 | -157.40197 | 19853 ft | 207 kts | 233° |
| 2026-05-09 14:25 | 57.33325 | -157.41969 | 19852 ft | 207 kts | 233° |
| 2026-05-09 14:25 | 57.32613 | -157.43145 | 19852 ft | 207 kts | 233° |
| 2026-05-09 14:25 | 57.31543 | -157.44912 | 19851 ft | 206 kts | 233° |
| 2026-05-09 14:25 | 57.30469 | -157.46682 | 19851 ft | 208 kts | 233° |
| 2026-05-09 14:26 | 57.29377 | -157.48492 | 19852 ft | 213 kts | 233° |
| 2026-05-09 14:26 | 57.28441 | -157.50041 | 19849 ft | 216 kts | 233° |
| 2026-05-09 14:26 | 57.27314 | -157.51898 | 19849 ft | 218 kts | 232° |
| 2026-05-09 14:26 | 57.26176 | -157.53766 | 19848 ft | 219 kts | 232° |
| 2026-05-09 14:27 | 57.25420 | -157.55005 | 19848 ft | 219 kts | 232° |
| 2026-05-09 14:27 | 57.24281 | -157.56871 | 19847 ft | 219 kts | 232° |
| 2026-05-09 14:27 | 57.23137 | -157.58742 | 19846 ft | 220 kts | 232° |
| 2026-05-09 14:27 | 57.21993 | -157.60615 | 19845 ft | 220 kts | 232° |
| 2026-05-09 14:28 | 57.20847 | -157.62488 | 19845 ft | 220 kts | 232° |
| 2026-05-09 14:28 | 57.19702 | -157.64361 | 19843 ft | 220 kts | 232° |
| 2026-05-09 14:28 | 57.18551 | -157.66240 | 19842 ft | 221 kts | 232° |
| 2026-05-09 14:28 | 57.17403 | -157.68112 | 19841 ft | 221 kts | 232° |
| 2026-05-09 14:29 | 57.16252 | -157.69988 | 19840 ft | 221 kts | 232° |
| 2026-05-09 14:29 | 57.15103 | -157.71862 | 19838 ft | 220 kts | 232° |
| 2026-05-09 14:29 | 57.13955 | -157.73730 | 19837 ft | 220 kts | 232° |
| 2026-05-09 14:29 | 57.12806 | -157.75599 | 19835 ft | 220 kts | 232° |
| 2026-05-09 14:30 | 57.11657 | -157.77467 | 19834 ft | 220 kts | 232° |
| 2026-05-09 14:30 | 57.10522 | -157.79311 | 19832 ft | 221 kts | 232° |
| 2026-05-09 14:30 | 57.09369 | -157.81183 | 19831 ft | 221 kts | 232° |
| 2026-05-09 14:30 | 57.08214 | -157.83055 | 19829 ft | 221 kts | 232° |
| 2026-05-09 14:31 | 57.07061 | -157.84924 | 19827 ft | 221 kts | 232° |
| 2026-05-09 14:31 | 57.05906 | -157.86792 | 19825 ft | 221 kts | 232° |
| 2026-05-09 14:31 | 57.04751 | -157.88659 | 19823 ft | 221 kts | 232° |
| 2026-05-09 14:31 | 57.03597 | -157.90525 | 19821 ft | 221 kts | 231° |
| 2026-05-09 14:32 | 57.02439 | -157.92395 | 19819 ft | 221 kts | 231° |
| 2026-05-09 14:32 | 57.01284 | -157.94259 | 19817 ft | 221 kts | 231° |
| 2026-05-09 14:32 | 57.00126 | -157.96124 | 19815 ft | 221 kts | 231° |
| 2026-05-09 14:32 | 56.98968 | -157.97987 | 19813 ft | 221 kts | 231° |
| 2026-05-09 14:33 | 56.97827 | -157.99823 | 19813 ft | 221 kts | 231° |
| 2026-05-09 14:33 | 56.96671 | -158.01683 | 19812 ft | 221 kts | 231° |
| 2026-05-09 14:33 | 56.95511 | -158.03549 | 19810 ft | 222 kts | 231° |
| 2026-05-09 14:33 | 56.94351 | -158.05410 | 19808 ft | 222 kts | 231° |
| 2026-05-09 14:34 | 56.93188 | -158.07274 | 19805 ft | 222 kts | 230° |
| 2026-05-09 14:34 | 56.92023 | -158.09141 | 19803 ft | 222 kts | 230° |
| 2026-05-09 14:34 | 56.90868 | -158.10987 | 19801 ft | 222 kts | 230° |
| 2026-05-09 14:34 | 56.89703 | -158.12851 | 19799 ft | 223 kts | 230° |
| 2026-05-09 14:35 | 56.88533 | -158.14720 | 19796 ft | 223 kts | 230° |
| 2026-05-09 14:35 | 56.87364 | -158.16587 | 19794 ft | 222 kts | 230° |
| 2026-05-09 14:35 | 56.86197 | -158.18448 | 19792 ft | 222 kts | 230° |
| 2026-05-09 14:35 | 56.85032 | -158.20303 | 19790 ft | 222 kts | 230° |
| 2026-05-09 14:36 | 56.83880 | -158.22136 | 19788 ft | 222 kts | 230° |
| 2026-05-09 14:36 | 56.82713 | -158.23992 | 19786 ft | 222 kts | 230° |
| 2026-05-09 14:36 | 56.81550 | -158.25842 | 19784 ft | 222 kts | 230° |
| 2026-05-09 14:36 | 56.80383 | -158.27695 | 19782 ft | 222 kts | 230° |
| 2026-05-09 14:37 | 56.79216 | -158.29546 | 19780 ft | 222 kts | 230° |
| 2026-05-09 14:37 | 56.78051 | -158.31394 | 19778 ft | 222 kts | 230° |
| 2026-05-09 14:37 | 56.76884 | -158.33244 | 19776 ft | 222 kts | 230° |
| 2026-05-09 14:37 | 56.75719 | -158.35088 | 19775 ft | 222 kts | 230° |
| 2026-05-09 14:38 | 56.74555 | -158.36928 | 19773 ft | 222 kts | 230° |
| 2026-05-09 14:38 | 56.73389 | -158.38772 | 19768 ft | 222 kts | 230° |
| 2026-05-09 14:38 | 56.72226 | -158.40608 | 19765 ft | 222 kts | 230° |
| 2026-05-09 14:38 | 56.71058 | -158.42451 | 19764 ft | 222 kts | 229° |
| 2026-05-09 14:39 | 56.69889 | -158.44293 | 19763 ft | 222 kts | 229° |
| 2026-05-09 14:39 | 56.68720 | -158.46133 | 19761 ft | 222 kts | 229° |
| 2026-05-09 14:39 | 56.67552 | -158.47971 | 19760 ft | 222 kts | 229° |
| 2026-05-09 14:39 | 56.66383 | -158.49808 | 19760 ft | 222 kts | 229° |
| 2026-05-09 14:40 | 56.65216 | -158.51641 | 19759 ft | 222 kts | 229° |
| 2026-05-09 14:40 | 56.64046 | -158.53477 | 19758 ft | 222 kts | 229° |
| 2026-05-09 14:40 | 56.62878 | -158.55308 | 19757 ft | 222 kts | 229° |
| 2026-05-09 14:40 | 56.61722 | -158.57120 | 19757 ft | 222 kts | 229° |
| 2026-05-09 14:41 | 56.60551 | -158.58953 | 19756 ft | 223 kts | 229° |
| 2026-05-09 14:41 | 56.59375 | -158.60794 | 19756 ft | 223 kts | 229° |
| 2026-05-09 14:41 | 56.58200 | -158.62629 | 19755 ft | 223 kts | 229° |
| 2026-05-09 14:41 | 56.57026 | -158.64464 | 19755 ft | 223 kts | 229° |
| 2026-05-09 14:42 | 56.55852 | -158.66294 | 19754 ft | 222 kts | 229° |
| 2026-05-09 14:42 | 56.54675 | -158.68128 | 19754 ft | 222 kts | 229° |
| 2026-05-09 14:42 | 56.53502 | -158.69955 | 19753 ft | 222 kts | 229° |
| 2026-05-09 14:42 | 56.52329 | -158.71780 | 19753 ft | 222 kts | 229° |
| 2026-05-09 14:43 | 56.51169 | -158.73583 | 19753 ft | 222 kts | 229° |
| 2026-05-09 14:43 | 56.49980 | -158.75430 | 19753 ft | 222 kts | 229° |
| 2026-05-09 14:43 | 56.48819 | -158.77233 | 19752 ft | 222 kts | 229° |
| 2026-05-09 14:43 | 56.47653 | -158.79041 | 19752 ft | 222 kts | 229° |
| 2026-05-09 14:44 | 56.46470 | -158.80875 | 19752 ft | 222 kts | 229° |
| 2026-05-09 14:44 | 56.45294 | -158.82696 | 19752 ft | 223 kts | 229° |
| 2026-05-09 14:44 | 56.44117 | -158.84518 | 19752 ft | 223 kts | 229° |
| 2026-05-09 14:44 | 56.42937 | -158.86341 | 19752 ft | 223 kts | 229° |
| 2026-05-09 14:45 | 56.41758 | -158.88163 | 19752 ft | 223 kts | 229° |
| 2026-05-09 14:45 | 56.40580 | -158.89981 | 19751 ft | 223 kts | 229° |
| 2026-05-09 14:45 | 56.39411 | -158.91782 | 19751 ft | 223 kts | 229° |
| 2026-05-09 14:45 | 56.38222 | -158.93614 | 19751 ft | 223 kts | 229° |
| 2026-05-09 14:46 | 56.37042 | -158.95430 | 19751 ft | 223 kts | 229° |
| 2026-05-09 14:46 | 56.35861 | -158.97246 | 19751 ft | 223 kts | 229° |
| 2026-05-09 14:46 | 56.34682 | -158.99057 | 19750 ft | 223 kts | 229° |
| 2026-05-09 14:46 | 56.33539 | -159.00813 | 19750 ft | 223 kts | 229° |
| 2026-05-09 14:47 | 56.32333 | -159.02663 | 19750 ft | 223 kts | 228° |
| 2026-05-09 14:47 | 56.31150 | -159.04476 | 19747 ft | 223 kts | 228° |
| 2026-05-09 14:47 | 56.29965 | -159.06292 | 19744 ft | 223 kts | 228° |
| 2026-05-09 14:47 | 56.28782 | -159.08101 | 19743 ft | 223 kts | 228° |
| 2026-05-09 14:48 | 56.27597 | -159.09912 | 19742 ft | 223 kts | 228° |
| 2026-05-09 14:48 | 56.26413 | -159.11721 | 19741 ft | 223 kts | 228° |
| 2026-05-09 14:48 | 56.25227 | -159.13530 | 19741 ft | 223 kts | 228° |
| 2026-05-09 14:48 | 56.24043 | -159.15336 | 19740 ft | 223 kts | 228° |
| 2026-05-09 14:49 | 56.22860 | -159.17139 | 19739 ft | 223 kts | 227° |
| 2026-05-09 14:49 | 56.21673 | -159.18947 | 19738 ft | 223 kts | 227° |
| 2026-05-09 14:49 | 56.20495 | -159.20739 | 19737 ft | 224 kts | 227° |
| 2026-05-09 14:49 | 56.19297 | -159.22557 | 19737 ft | 224 kts | 227° |
| 2026-05-09 14:50 | 56.18082 | -159.24313 | 19736 ft | 225 kts | 226° |
| 2026-05-09 14:50 | 56.16845 | -159.26033 | 19735 ft | 225 kts | 225° |
| 2026-05-09 14:50 | 56.15601 | -159.27744 | 19733 ft | 225 kts | 225° |
| 2026-05-09 14:50 | 56.14357 | -159.29449 | 19732 ft | 225 kts | 225° |
| 2026-05-09 14:51 | 56.13109 | -159.31158 | 19731 ft | 225 kts | 225° |
| 2026-05-09 14:51 | 56.11862 | -159.32862 | 19730 ft | 226 kts | 225° |
| 2026-05-09 14:51 | 56.10632 | -159.34544 | 19728 ft | 226 kts | 225° |
| 2026-05-09 14:51 | 56.09382 | -159.36249 | 19727 ft | 226 kts | 225° |
| 2026-05-09 14:52 | 56.08134 | -159.37952 | 19725 ft | 225 kts | 225° |
| 2026-05-09 14:52 | 56.06884 | -159.39653 | 19724 ft | 225 kts | 225° |
| 2026-05-09 14:52 | 56.05633 | -159.41356 | 19722 ft | 226 kts | 225° |
| 2026-05-09 14:52 | 56.04387 | -159.43053 | 19721 ft | 226 kts | 224° |
| 2026-05-09 14:53 | 56.03134 | -159.44757 | 19719 ft | 226 kts | 224° |
| 2026-05-09 14:53 | 56.01882 | -159.46457 | 19717 ft | 226 kts | 224° |
| 2026-05-09 14:53 | 56.00629 | -159.48157 | 19714 ft | 226 kts | 224° |
| 2026-05-09 14:53 | 55.99377 | -159.49857 | 19707 ft | 227 kts | 224° |
| 2026-05-09 14:54 | 55.98120 | -159.51563 | 19704 ft | 227 kts | 224° |
| 2026-05-09 14:54 | 55.96862 | -159.53267 | 19702 ft | 227 kts | 223° |
| 2026-05-09 14:54 | 55.95600 | -159.54973 | 19700 ft | 227 kts | 223° |
| 2026-05-09 14:54 | 55.94341 | -159.56675 | 19699 ft | 227 kts | 223° |
| 2026-05-09 14:55 | 55.93095 | -159.58358 | 19697 ft | 227 kts | 223° |
| 2026-05-09 14:55 | 55.91821 | -159.60076 | 19696 ft | 227 kts | 223° |
| 2026-05-09 14:55 | 55.90559 | -159.61777 | 19669 ft | 228 kts | 223° |
| 2026-05-09 14:55 | 55.89296 | -159.63482 | 19430 ft | 233 kts | 223° |
| 2026-05-09 14:56 | 55.87962 | -159.65198 | 19037 ft | 240 kts | 219° |
| 2026-05-09 14:56 | 55.86458 | -159.66596 | 18618 ft | 247 kts | 213° |
| 2026-05-09 14:56 | 55.84876 | -159.67827 | 18195 ft | 249 kts | 211° |
| 2026-05-09 14:56 | 55.83284 | -159.69043 | 17770 ft | 249 kts | 211° |
| 2026-05-09 14:57 | 55.81694 | -159.70256 | 17345 ft | 249 kts | 211° |
| 2026-05-09 14:57 | 55.80101 | -159.71473 | 16919 ft | 249 kts | 211° |
| 2026-05-09 14:57 | 55.78513 | -159.72690 | 16500 ft | 249 kts | 211° |
| 2026-05-09 14:57 | 55.76928 | -159.73911 | 16118 ft | 248 kts | 211° |
| 2026-05-09 14:58 | 55.75348 | -159.75133 | 15776 ft | 246 kts | 211° |
| 2026-05-09 14:58 | 55.73780 | -159.76343 | 15445 ft | 245 kts | 211° |
| 2026-05-09 14:58 | 55.72220 | -159.77543 | 15121 ft | 245 kts | 211° |
| 2026-05-09 14:58 | 55.70651 | -159.78752 | 14817 ft | 244 kts | 211° |
| 2026-05-09 14:59 | 55.69099 | -159.79952 | 14543 ft | 243 kts | 211° |
| 2026-05-09 14:59 | 55.67547 | -159.81150 | 14282 ft | 243 kts | 211° |
| 2026-05-09 14:59 | 55.66001 | -159.82345 | 14033 ft | 242 kts | 211° |
| 2026-05-09 14:59 | 55.64460 | -159.83542 | 13807 ft | 241 kts | 211° |
| 2026-05-09 15:00 | 55.62928 | -159.84749 | 13597 ft | 241 kts | 211° |
| 2026-05-09 15:00 | 55.61405 | -159.85964 | 13393 ft | 240 kts | 211° |
| 2026-05-09 15:00 | 55.59885 | -159.87182 | 13200 ft | 240 kts | 211° |
| 2026-05-09 15:00 | 55.58389 | -159.88383 | 13024 ft | 239 kts | 211° |
| 2026-05-09 15:01 | 55.55369 | -159.90820 | 12701 ft | 238 kts | 212° |
| 2026-05-09 15:01 | 55.53868 | -159.92039 | 12556 ft | 237 kts | 212° |
| 2026-05-09 15:01 | 55.52370 | -159.93259 | 12407 ft | 238 kts | 212° |
| 2026-05-09 15:02 | 55.50870 | -159.94485 | 12268 ft | 237 kts | 212° |
| 2026-05-09 15:02 | 55.49375 | -159.95714 | 12150 ft | 237 kts | 212° |
| 2026-05-09 15:02 | 55.47929 | -159.96914 | 12030 ft | 237 kts | 212° |
| 2026-05-09 15:02 | 55.46398 | -159.98199 | 11903 ft | 237 kts | 212° |
| 2026-05-09 15:03 | 55.44910 | -159.99456 | 11790 ft | 237 kts | 212° |
| 2026-05-09 15:03 | 55.43431 | -160.00724 | 11693 ft | 237 kts | 212° |
| 2026-05-09 15:03 | 55.41954 | -160.02020 | 11601 ft | 237 kts | 212° |
| 2026-05-09 15:03 | 55.40486 | -160.03331 | 11512 ft | 236 kts | 212° |
| 2026-05-09 15:04 | 55.39056 | -160.04628 | 11431 ft | 236 kts | 212° |
| 2026-05-09 15:04 | 55.37585 | -160.05984 | 11351 ft | 236 kts | 213° |
| 2026-05-09 15:06 | 55.27773 | -160.15826 | 9825 ft | 214 kts | 211° |
| 2026-05-09 15:06 | 55.26483 | -160.17052 | 9348 ft | 208 kts | 210° |
| 2026-05-09 15:06 | 55.25235 | -160.18273 | 8874 ft | 205 kts | 210° |
| 2026-05-09 15:06 | 55.23996 | -160.19525 | 8419 ft | 203 kts | 211° |
| 2026-05-09 15:07 | 55.22784 | -160.20769 | 7969 ft | 201 kts | 211° |
| 2026-05-09 15:07 | 55.21576 | -160.22017 | 7517 ft | 200 kts | 211° |
| 2026-05-09 15:07 | 55.20410 | -160.23357 | 7060 ft | 200 kts | 219° |
| 2026-05-09 15:07 | 55.19443 | -160.25109 | 6619 ft | 200 kts | 228° |
| 2026-05-09 15:08 | 55.18564 | -160.26993 | 6171 ft | 200 kts | 230° |
| 2026-05-09 15:08 | 55.16854 | -160.30842 | 5270 ft | 201 kts | 231° |
| 2026-05-09 15:08 | 55.16084 | -160.32901 | 4790 ft | 203 kts | 236° |
| 2026-05-09 15:09 | 55.15342 | -160.34959 | 4545 ft | 194 kts | 236° |
| 2026-05-09 15:10 | 55.15874 | -160.45504 | 3917 ft | 145 kts | 315° |
| 2026-05-09 15:11 | 55.16628 | -160.46654 | 3723 ft | 144 kts | 320° |
| 2026-05-09 15:11 | 55.17427 | -160.47758 | 3391 ft | 150 kts | 323° |
| 2026-05-09 15:11 | 55.18283 | -160.48795 | 3155 ft | 147 kts | 329° |
| 2026-05-09 15:11 | 55.19177 | -160.49550 | 3015 ft | 141 kts | 339° |
| 2026-05-09 15:12 | 55.20043 | -160.50232 | 2955 ft | 130 kts | 334° |
| 2026-05-09 15:12 | 55.20831 | -160.50889 | 2901 ft | 121 kts | 336° |
| 2026-05-09 15:12 | 55.21550 | -160.51450 | 2906 ft | 106 kts | 336° |
| 2026-05-09 15:12 | 55.22190 | -160.52062 | 2798 ft | 106 kts | 335° |
| 2026-05-09 15:13 | 55.22918 | -160.52649 | 2728 ft | 123 kts | 337° |
| 2026-05-09 15:13 | 55.23725 | -160.53290 | 2677 ft | 136 kts | 337° |
| 2026-05-09 15:13 | 55.24688 | -160.53997 | 2706 ft | 161 kts | 337° |
| 2026-05-09 15:13 | 55.25738 | -160.54834 | 2611 ft | 167 kts | 338° |
| 2026-05-09 15:14 | 55.26754 | -160.55729 | 2431 ft | 161 kts | 332° |
| 2026-05-09 15:14 | 55.27711 | -160.56702 | 2284 ft | 155 kts | 330° |
| 2026-05-09 15:14 | 55.28627 | -160.57660 | 2116 ft | 151 kts | 331° |
| 2026-05-09 15:14 | 55.29524 | -160.58578 | 2015 ft | 147 kts | 331° |
| 2026-05-09 15:15 | 55.30382 | -160.59463 | 1987 ft | 139 kts | 330° |
| 2026-05-09 15:15 | 55.30944 | -160.59968 | 1964 ft | 130 kts | 341° |
| 2026-05-09 15:15 | 55.31800 | -160.60026 | 1683 ft | 128 kts | 19° |
| 2026-05-09 15:15 | 55.32398 | -160.58846 | 1167 ft | 134 kts | 72° |
| 2026-05-09 15:16 | 55.32706 | -160.57484 | 1118 ft | 118 kts | 73° |
| 2026-05-09 15:16 | 55.33000 | -160.56056 | 868 ft | 124 kts | 74° |
| 2026-05-09 15:16 | 55.33252 | -160.54633 | 752 ft | 117 kts | 87° |
| 2026-05-09 15:16 | 55.32889 | -160.53559 | 343 ft | 108 kts | 149° |
| 2026-05-09 15:17 | 55.32251 | -160.53052 | 151 ft | 95 kts | 154° |
| 2026-05-09 15:17 | 55.31713 | -160.52527 | 28 ft | 79 kts | 148° |
| 2026-05-09 15:17 | 55.31382 | -160.52177 | 28 ft | 21 kts | 163° |
| 2026-05-09 15:17 | 55.31352 | -160.52117 | 28 ft | 10 kts | 3° |
| 2026-05-09 15:18 | 55.31456 | -160.52233 | 28 ft | 25 kts | 322° |
| 2026-05-09 15:18 | 55.31587 | -160.52358 | 28 ft | 18 kts | 32° |
| 2026-05-09 15:18 | 55.31683 | -160.52279 | 28 ft | 21 kts | 329° |
| 2026-05-09 15:18 | 55.31746 | -160.52219 | 28 ft | 9 kts | 62° |
| 2026-05-09 15:19 | 55.31748 | -160.52213 | 28 ft | 0 kts | 62° |